Latest Weather Observations for Rockhampton

IDQ60801

Issued at 3:32 pm EST Sunday 5 July 2015 (issued every 30 minutes, with the page automatically refreshed every 10 minutes)

About weather observations | Map of weather stations | Latest weather observations for QLD | Other Formats
Station Details ID: 039083 Name: ROCKHAMPTON AERO Lat: -23.38 Lon: 150.48 Height: 10.4 m
Data from the previous 72 hours. | See also: Recent months at Rockhampton
Date/Time
EST
Temp
°C
App
Temp
°C
Dew
Point
Rel
Hum
%
Delta-T
°C
Wind Press
QNH
hPa
Press
MSL
hPa
Rain
since 9 am
mm
Dir
 
Spd
km/h
Gust
km/h
Spd
kts
Gust
kts
05/03:00pm 23.3 20.7 10.6 44 7.0 E 15 20 8 11 1018.6 1018.6 0.0
05/02:30pm 24.1 21.8 10.3 41 7.6 E 13 20 7 11 1018.8 - 0.0
05/02:00pm 23.8 21.3 9.6 40 7.7 E 13 20 7 11 1019.2 - 0.0
05/01:30pm 23.6 21.4 9.3 40 7.7 ESE 11 17 6 9 1019.4 - 0.0
05/01:00pm 23.6 21.8 9.6 41 7.6 SE 9 17 5 9 1019.8 - 0.0
05/12:30pm 22.5 19.9 9.2 42 7.1 ESE 13 22 7 12 1020.3 - 0.0
05/12:00pm 22.9 19.9 9.3 42 7.3 E 15 20 8 11 1020.8 1020.8 0.0
05/11:30am 22.5 20.2 10.4 46 6.6 ESE 13 19 7 10 1021.2 - 0.0
05/11:00am 22.5 19.6 11.1 48 6.3 ESE 17 26 9 14 1021.6 - 0.0
05/10:30am 21.6 19.1 12.4 55 5.2 ESE 17 26 9 14 1021.8 - 0.0
05/10:00am 21.2 19.1 12.3 57 5.0 ESE 15 20 8 11 1021.9 - 0.0
05/09:30am 20.1 18.4 12.4 61 4.3 ESE 13 20 7 11 1022.0 - 0.0
05/08:30am 18.1 17.4 12.1 68 3.3 E 7 13 4 7 1021.8 - 0.0
05/08:00am 16.3 15.2 11.9 75 2.4 SE 9 13 5 7 1021.5 - 0.0
05/07:30am 16.1 15.4 11.9 76 2.3 SE 7 11 4 6 1021.3 - 0.0
05/07:00am 15.9 15.0 11.4 74 2.4 SSE 7 7 4 4 1021.0 - 0.0
05/06:30am 15.9 14.6 11.2 73 2.5 SSE 9 11 5 6 1020.7 - 0.0
05/06:00am 14.9 14.4 12.1 83 1.5 SSE 6 9 3 5 1020.5 1020.5 0.0
05/05:30am 14.6 14.8 11.8 83 1.5 S 2 7 1 4 1020.2 - 0.0
05/05:00am 14.2 13.4 11.2 82 1.6 S 6 9 3 5 1020.0 - 0.0
05/04:30am 14.2 14.6 11.4 83 1.5 CALM 0 0 0 0 1019.9 - 0.0
05/04:00am 14.6 13.9 11.4 81 1.7 S 6 7 3 4 1019.7 - 0.0
05/03:30am 14.5 13.7 11.7 83 1.5 W 7 9 4 5 1019.8 - 0.0
05/03:00am 16.1 14.7 11.0 72 2.7 SE 9 11 5 6 1019.8 1019.8 0.0
05/02:30am 15.7 14.8 11.4 75 2.3 SE 7 13 4 7 1019.9 - 0.0
05/02:00am 14.9 14.2 11.5 80 1.8 ESE 6 11 3 6 1020.2 - 0.0
05/01:30am 14.2 14.4 11.8 85 1.3 SSW 2 7 1 4 1020.5 - 0.0
05/01:00am 13.7 12.8 11.4 86 1.2 SSW 7 9 4 5 1020.8 - 0.0
05/12:30am 14.4 13.7 12.0 85 1.3 SSE 7 9 4 5 1021.0 - 0.0
05/12:00am 14.9 13.8 11.9 82 1.6 W 9 13 5 7 1021.1 1021.1 0.0
 
Date/Time
EST
Temp
°C
App
Temp
°C
Dew
Point
Rel
Hum
%
Delta-T
°C
Wind Press
QNH
hPa
Press
MSL
hPa
Rain
since 9 am
mm
Dir
 
Spd
km/h
Gust
km/h
Spd
kts
Gust
kts
04/11:30pm 14.9 15.2 12.1 83 1.5 SE 2 9 1 5 1021.2 - 0.0
04/11:00pm 15.1 15.8 12.3 83 1.5 CALM 0 6 0 3 1021.4 - 0.0
04/10:30pm 14.9 15.6 12.1 83 1.5 CALM 0 0 0 0 1021.4 - 0.0
04/10:00pm 15.3 16.0 12.2 82 1.7 CALM 0 6 0 3 1021.6 - 0.0
04/09:30pm 15.6 15.0 11.7 77 2.1 SW 6 7 3 4 1021.7 - 0.0
04/09:00pm 15.2 15.7 11.7 79 1.9 CALM 0 0 0 0 1021.7 1021.7 0.0
04/08:30pm 16.0 15.2 11.7 75 2.3 S 7 11 4 6 1021.5 - 0.0
04/08:00pm 15.3 15.4 11.6 78 2.0 SSE 2 7 1 4 1021.4 - 0.0
04/07:30pm 16.0 15.0 10.9 72 2.7 SSW 7 9 4 5 1021.2 - 0.0
04/07:00pm 17.6 15.9 11.3 66 3.4 SW 11 11 6 6 1020.7 - 0.0
04/06:30pm 18.3 17.5 11.7 65 3.6 E 7 11 4 6 1020.1 - 0.0
04/06:00pm 18.8 16.9 10.6 59 4.4 E 11 15 6 8 1019.8 1019.8 0.0
04/05:30pm 19.8 17.9 10.5 55 5.0 E 11 15 6 8 1019.6 - 0.0
04/05:00pm 20.5 17.8 10.3 52 5.5 ENE 15 20 8 11 1019.4 - 0.0
04/04:30pm 21.1 18.7 10.0 49 6.0 ENE 13 22 7 12 1019.2 - 0.0
04/04:00pm 22.0 19.0 10.5 48 6.3 ENE 17 24 9 13 1019.0 - 0.0
04/03:30pm 21.9 19.3 10.8 49 6.1 ENE 15 20 8 11 1019.0 - 0.0
04/03:00pm 22.7 19.5 11.2 48 6.4 ENE 19 24 10 13 1018.9 1018.9 0.0
04/02:30pm 22.1 19.7 11.3 50 6.0 E 15 22 8 12 1018.9 - 0.0
04/02:00pm 22.2 19.3 11.0 49 6.2 E 17 24 9 13 1018.9 - 0.0
04/01:30pm 22.5 19.3 11.1 48 6.3 ESE 19 28 10 15 1019.0 - 0.0
04/01:00pm 22.2 19.3 11.0 49 6.2 ESE 17 24 9 13 1019.3 - 0.0
04/12:30pm 22.2 18.4 11.0 49 6.2 ESE 22 33 12 18 1019.8 - 0.0
04/12:00pm 22.2 19.4 11.4 50 6.0 ESE 17 26 9 14 1020.3 1020.3 0.0
04/11:30am 21.0 17.4 10.5 51 5.7 ESE 20 32 11 17 1020.9 - 0.0
04/11:00am 20.1 16.7 10.5 54 5.2 ESE 19 26 10 14 1021.3 - 0.0
04/10:30am 19.5 16.0 10.2 55 5.0 SE 19 28 10 15 1021.6 - 0.0
04/10:00am 18.3 15.7 9.3 55 4.7 ESE 13 20 7 11 1021.8 - 0.0
04/09:30am 17.3 14.6 9.0 58 4.3 ESE 13 17 7 9 1022.1 - 0.0
04/09:00am 14.5 14.1 8.1 65 3.2 CALM 0 0 0 0 1022.2 1022.2 0.0
04/08:30am 12.8 10.7 6.7 66 2.9 SSW 7 11 4 6 1022.2 - 0.0
04/08:00am 11.2 9.0 6.3 72 2.3 SW 7 9 4 5 1022.5 - 0.0
04/07:30am 9.7 7.4 5.8 77 1.8 SSW 7 11 4 6 1022.2 - 0.0
04/07:00am 8.4 5.5 4.8 78 1.6 SSW 9 13 5 7 1021.9 - 0.0
04/06:30am 8.0 5.5 4.6 79 1.5 WSW 7 9 4 5 1021.6 - 0.0
04/06:00am 8.0 5.8 5.3 83 1.2 SSW 6 9 3 5 1021.2 1021.2 0.0
04/05:30am 7.5 4.7 5.0 84 1.1 SW 9 11 5 6 1021.0 - 0.0
04/05:00am 7.5 4.2 4.8 83 1.2 WSW 11 13 6 7 1020.7 - 0.0
04/04:30am 7.2 4.7 4.7 84 1.1 WSW 7 9 4 5 1020.7 - 0.0
04/04:00am 8.1 4.8 4.7 79 1.5 WSW 11 13 6 7 1020.7 - 0.0
04/03:30am 7.2 4.3 4.4 82 1.2 SW 9 13 5 7 1020.7 - 0.0
04/03:00am 7.0 3.8 4.9 86 0.9 WSW 11 13 6 7 1020.5 1020.5 0.0
04/02:30am 9.5 6.8 5.8 78 1.7 S 9 13 5 7 1020.5 - 0.0
04/02:00am 9.6 7.1 6.4 80 1.5 S 9 13 5 7 1020.8 - 0.0
04/01:30am 10.6 7.4 5.3 70 2.4 SSE 11 13 6 7 1021.3 - 0.0
04/01:00am 10.3 7.2 5.7 73 2.1 SSE 11 15 6 8 1021.6 - 0.0
04/12:30am 10.3 7.8 6.7 78 1.7 S 9 11 5 6 1021.8 - 0.0
04/12:00am 10.8 8.4 5.3 69 2.5 SSE 7 11 4 6 1021.9 1021.9 0.0
 
Date/Time
EST
Temp
°C
App
Temp
°C
Dew
Point
Rel
Hum
%
Delta-T
°C
Wind Press
QNH
hPa
Press
MSL
hPa
Rain
since 9 am
mm
Dir
 
Spd
km/h
Gust
km/h
Spd
kts
Gust
kts
03/11:30pm 9.7 7.7 7.1 84 1.2 SSE 7 11 4 6 1022.2 - 0.0
03/11:00pm 9.9 9.1 6.5 79 1.6 CALM 0 0 0 0 1022.4 - 0.0
03/10:30pm 9.5 8.7 6.7 83 1.3 CALM 0 0 0 0 1022.3 - 0.0
03/10:00pm 9.8 9.2 7.5 85 1.1 CALM 0 0 0 0 1022.3 - 0.0
03/09:30pm 9.9 9.2 7.1 83 1.3 CALM 0 0 0 0 1022.2 - 0.0
03/09:00pm 11.1 10.7 8.2 82 1.4 CALM 0 0 0 0 1022.3 1022.3 0.0
03/08:30pm 11.1 10.3 6.6 74 2.1 CALM 0 0 0 0 1022.2 - 0.0
03/08:00pm 12.0 11.1 6.0 66 2.8 CALM 0 0 0 0 1021.7 - 0.0
03/07:30pm 12.8 11.9 6.0 63 3.2 CALM 0 6 0 3 1021.6 - 0.0
03/07:00pm 13.6 11.2 5.2 57 3.9 WSW 7 9 4 5 1021.3 - 0.0
03/06:30pm 15.1 13.8 6.1 55 4.3 E 2 6 1 3 1021.0 - 0.0
03/06:00pm 16.3 13.4 4.9 46 5.4 E 9 13 5 7 1020.8 1020.8 0.0
03/05:30pm 17.0 14.0 3.9 41 6.1 E 9 15 5 8 1020.5 - 0.0
03/05:00pm 18.1 13.7 2.9 36 7.0 E 15 22 8 12 1020.1 - 0.0
03/04:30pm 18.7 14.2 1.9 32 7.6 E 15 24 8 13 1019.7 - 0.0
03/04:00pm 19.4 14.4 1.5 30 8.1 ESE 17 26 9 14 1019.3 - 0.0
03/03:30pm 19.4 14.0 1.1 29 8.2 E 19 26 10 14 1019.0 - 0.0
03/03:00pm 20.1 14.9 -0.1 26 8.9 ESE 17 24 9 13 1018.9 1018.9 0.0
03/02:30pm 20.0 15.7 1.2 28 8.5 ESE 13 20 7 11 1019.0 - 0.0
03/02:00pm 20.6 17.6 1.9 29 8.6 NE 7 13 4 7 1019.1 - 0.0
03/01:30pm 20.0 16.7 2.5 31 8.1 ESE 9 13 5 7 1019.3 - 0.0
03/01:00pm 19.7 16.9 2.3 31 8.0 S 6 15 3 8 1019.6 - 0.0
03/12:30pm 18.9 16.0 1.2 30 7.9 SSE 6 15 3 8 1020.2 - 0.0
03/12:00pm 17.7 14.1 0.9 32 7.4 SSW 9 13 5 7 1020.7 1020.7 0.0
03/11:30am 17.7 15.0 2.8 37 6.8 S 6 13 3 7 1021.3 - 0.0
03/11:00am 16.3 12.9 1.8 37 6.4 SW 9 13 5 7 1021.9 - 0.0
03/10:30am 15.6 12.1 1.4 38 6.2 S 9 13 5 7 1022.2 - 0.0
03/10:00am 15.2 12.3 1.4 39 6.0 WSW 6 13 3 7 1022.0 - 0.0
03/09:30am 14.1 11.1 1.9 43 5.3 SSW 7 13 4 7 1022.2 - 0.0
03/09:00am 13.3 8.9 2.6 48 4.7 SSW 15 20 8 11 1022.1 1022.1 0.0
03/08:30am 12.1 7.4 2.9 53 4.0 SSW 17 22 9 12 1021.9 - 0.0
03/08:00am 11.1 6.9 3.6 60 3.3 SSW 15 19 8 10 1021.6 - 0.0
03/07:30am 10.0 5.8 3.8 65 2.7 SSW 15 22 8 12 1021.3 - 0.0
03/07:00am 9.1 4.8 3.5 68 2.4 SSW 15 20 8 11 1021.0 - 0.0
03/06:30am 9.1 4.9 3.8 69 2.3 SSW 15 17 8 9 1020.9 - 0.0
03/06:00am 8.7 5.3 3.8 71 2.1 SW 11 13 6 7 1020.4 1020.4 0.0
03/05:30am 9.2 4.7 4.2 71 2.2 SW 17 19 9 10 1020.0 - 0.0
03/05:00am 10.0 5.9 4.4 68 2.5 SW 15 19 8 10 1019.6 - 0.0
03/04:30am 10.2 7.2 4.1 66 2.7 SW 9 13 5 7 1019.6 - 0.0
03/04:00am 11.1 6.6 4.1 62 3.1 SSW 17 20 9 11 1019.6 - 0.0
03/03:30am 11.1 7.0 4.4 63 3.0 SSW 15 19 8 10 1019.7 - 0.0
03/03:00am 11.9 7.4 4.4 60 3.4 SSW 17 19 9 10 1019.9 1019.9 0.0
03/02:30am 12.1 8.8 4.3 59 3.5 SSW 11 13 6 7 1020.0 - 0.0
03/02:00am 12.4 9.6 5.0 60 3.4 SSW 9 11 5 6 1020.4 - 0.0
03/01:30am 11.7 10.0 6.1 68 2.6 SSW 4 9 2 5 1020.6 - 0.0
03/01:00am 13.1 10.0 5.4 59 3.6 SSW 11 19 6 10 1020.9 - 0.0
03/12:30am 13.8 11.1 5.7 58 3.8 S 9 11 5 6 1021.1 - 0.0
03/12:00am 12.1 9.4 5.6 64 3.0 SW 9 15 5 8 1021.0 1021.0 0.0
 
Date/Time
EST
Temp
°C
App
Temp
°C
Dew
Point
Rel
Hum
%
Delta-T
°C
Wind Press
QNH
hPa
Press
MSL
hPa
Rain
since 9 am
mm
Dir
 
Spd
km/h
Gust
km/h
Spd
kts
Gust
kts
02/11:30pm 13.5 10.9 6.1 61 3.5 SSW 9 13 5 7 1021.1 - 0.0
02/11:00pm 13.8 10.9 6.5 61 3.5 SW 11 13 6 7 1021.2 - 0.0
02/10:30pm 13.8 11.9 6.5 61 3.5 SW 6 9 3 5 1021.4 - 0.0
02/10:00pm 14.8 14.0 6.5 57 4.0 CALM 0 0 0 0 1021.2 - 0.0
02/09:30pm 16.5 13.9 5.9 49 5.1 SSE 9 11 5 6 1021.2 - 0.0
02/09:00pm 16.1 13.8 5.9 50 4.9 S 7 9 4 5 1021.3 1021.3 0.0
02/08:30pm 17.0 13.2 5.6 47 5.5 SSW 15 19 8 10 1021.2 - 0.0
02/08:00pm 16.7 12.8 5.4 47 5.4 SSW 15 19 8 10 1021.0 - 0.0
02/07:30pm 17.9 14.2 4.7 41 6.3 SSW 13 19 7 10 1020.5 - 0.0
02/07:00pm 18.7 14.1 3.5 36 7.1 SW 17 20 9 11 1020.0 - 0.0
02/06:30pm 18.2 13.7 4.0 39 6.7 SSW 17 20 9 11 1019.6 - 0.0
02/06:00pm 19.2 14.5 3.4 35 7.4 SW 17 20 9 11 1019.1 1019.1 0.0
02/05:30pm 20.4 15.8 3.8 33 7.9 SSW 17 20 9 11 1018.8 - 0.0
02/05:00pm 22.1 17.3 2.6 27 9.2 S 17 24 9 13 1018.5 - 0.0
02/04:30pm 23.0 18.3 2.9 26 9.6 S 17 24 9 13 1018.3 - 0.0
02/04:00pm 23.5 18.5 3.5 27 9.7 S 19 26 10 14 1018.3 - 0.0

Other Formats:

Comma delimited format used in spreadsheet applications
http://www.bom.gov.au/fwo/IDQ60801/IDQ60801.94374.axf

JavaScript Object Notation format (JSON) in row-major order
http://www.bom.gov.au/fwo/IDQ60801/IDQ60801.94374.json